sensor_id;sensor_type;location;lat;lon;timestamp;temperature;humidity
39847;DHT22;25517;52.422;10.782;2024-03-17T00:01:44;4.70;99.90
39847;DHT22;25517;52.422;10.782;2024-03-17T00:04:09;4.70;99.90
39847;DHT22;25517;52.422;10.782;2024-03-17T00:06:35;4.70;99.90
39847;DHT22;25517;52.422;10.782;2024-03-17T00:09:03;4.70;99.90
39847;DHT22;25517;52.422;10.782;2024-03-17T00:11:32;4.70;99.90
39847;DHT22;25517;52.422;10.782;2024-03-17T00:14:01;4.60;99.90
39847;DHT22;25517;52.422;10.782;2024-03-17T00:16:26;4.60;99.90
39847;DHT22;25517;52.422;10.782;2024-03-17T00:18:52;4.60;99.90
39847;DHT22;25517;52.422;10.782;2024-03-17T00:21:18;4.60;99.90
39847;DHT22;25517;52.422;10.782;2024-03-17T00:23:47;4.60;99.90
39847;DHT22;25517;52.422;10.782;2024-03-17T00:26:15;4.60;99.90
39847;DHT22;25517;52.422;10.782;2024-03-17T00:28:40;4.50;99.90
39847;DHT22;25517;52.422;10.782;2024-03-17T00:31:06;4.50;99.90
39847;DHT22;25517;52.422;10.782;2024-03-17T00:33:32;4.50;99.90
39847;DHT22;25517;52.422;10.782;2024-03-17T00:36:01;4.50;99.90
39847;DHT22;25517;52.422;10.782;2024-03-17T00:38:27;4.40;99.90
39847;DHT22;25517;52.422;10.782;2024-03-17T00:40:52;4.40;99.90
39847;DHT22;25517;52.422;10.782;2024-03-17T00:43:21;4.40;99.90
39847;DHT22;25517;52.422;10.782;2024-03-17T00:45:53;4.40;99.90
39847;DHT22;25517;52.422;10.782;2024-03-17T00:48:19;4.40;99.90
39847;DHT22;25517;52.422;10.782;2024-03-17T00:50:45;4.40;99.90
39847;DHT22;25517;52.422;10.782;2024-03-17T00:53:11;4.40;99.90
39847;DHT22;25517;52.422;10.782;2024-03-17T00:55:37;4.30;99.90
39847;DHT22;25517;52.422;10.782;2024-03-17T00:58:02;4.40;99.90
39847;DHT22;25517;52.422;10.782;2024-03-17T01:00:28;4.30;99.90
39847;DHT22;25517;52.422;10.782;2024-03-17T01:02:54;4.30;99.90
39847;DHT22;25517;52.422;10.782;2024-03-17T01:05:20;4.30;99.90
39847;DHT22;25517;52.422;10.782;2024-03-17T01:07:45;4.30;99.90
39847;DHT22;25517;52.422;10.782;2024-03-17T01:10:13;4.30;99.90
39847;DHT22;25517;52.422;10.782;2024-03-17T01:12:38;4.30;99.90
39847;DHT22;25517;52.422;10.782;2024-03-17T01:15:08;4.20;99.90
39847;DHT22;25517;52.422;10.782;2024-03-17T01:17:33;4.20;99.90
39847;DHT22;25517;52.422;10.782;2024-03-17T01:19:59;4.20;99.90
39847;DHT22;25517;52.422;10.782;2024-03-17T01:22:25;4.20;99.90
39847;DHT22;25517;52.422;10.782;2024-03-17T01:24:50;4.10;99.90
39847;DHT22;25517;52.422;10.782;2024-03-17T01:27:16;4.10;99.90
39847;DHT22;25517;52.422;10.782;2024-03-17T01:29:44;4.10;99.90
39847;DHT22;25517;52.422;10.782;2024-03-17T01:32:10;4.10;99.90
39847;DHT22;25517;52.422;10.782;2024-03-17T01:34:38;4.10;99.90
39847;DHT22;25517;52.422;10.782;2024-03-17T01:37:04;4.10;99.90
39847;DHT22;25517;52.422;10.782;2024-03-17T01:39:30;4.00;99.90
39847;DHT22;25517;52.422;10.782;2024-03-17T01:41:58;4.00;99.90
39847;DHT22;25517;52.422;10.782;2024-03-17T01:44:29;4.00;99.90
39847;DHT22;25517;52.422;10.782;2024-03-17T01:46:56;4.00;99.90
39847;DHT22;25517;52.422;10.782;2024-03-17T01:49:22;4.00;99.90
39847;DHT22;25517;52.422;10.782;2024-03-17T01:51:50;4.00;99.90
39847;DHT22;25517;52.422;10.782;2024-03-17T01:54:16;4.00;99.90
39847;DHT22;25517;52.422;10.782;2024-03-17T01:56:43;3.80;99.90
39847;DHT22;25517;52.422;10.782;2024-03-17T01:59:09;3.90;99.90
39847;DHT22;25517;52.422;10.782;2024-03-17T02:01:36;3.90;99.90
39847;DHT22;25517;52.422;10.782;2024-03-17T02:04:03;3.80;99.90
39847;DHT22;25517;52.422;10.782;2024-03-17T02:06:29;3.70;99.90
39847;DHT22;25517;52.422;10.782;2024-03-17T02:08:54;3.70;99.90
39847;DHT22;25517;52.422;10.782;2024-03-17T02:11:27;3.70;99.90
39847;DHT22;25517;52.422;10.782;2024-03-17T02:13:54;3.70;99.90
39847;DHT22;25517;52.422;10.782;2024-03-17T02:16:21;3.70;99.90
39847;DHT22;25517;52.422;10.782;2024-03-17T02:18:46;3.80;99.90
39847;DHT22;25517;52.422;10.782;2024-03-17T02:21:13;3.80;99.90
39847;DHT22;25517;52.422;10.782;2024-03-17T02:23:41;3.70;99.90
39847;DHT22;25517;52.422;10.782;2024-03-17T02:26:06;3.80;99.90
39847;DHT22;25517;52.422;10.782;2024-03-17T02:28:42;3.80;99.90
39847;DHT22;25517;52.422;10.782;2024-03-17T02:31:10;3.80;99.90
39847;DHT22;25517;52.422;10.782;2024-03-17T02:33:37;3.80;99.90
39847;DHT22;25517;52.422;10.782;2024-03-17T02:36:03;3.80;99.90
39847;DHT22;25517;52.422;10.782;2024-03-17T02:38:30;3.70;99.90
39847;DHT22;25517;52.422;10.782;2024-03-17T02:41:15;3.70;99.90
39847;DHT22;25517;52.422;10.782;2024-03-17T02:43:41;3.80;99.90
39847;DHT22;25517;52.422;10.782;2024-03-17T02:46:06;3.80;99.90
39847;DHT22;25517;52.422;10.782;2024-03-17T02:48:36;3.80;99.90
39847;DHT22;25517;52.422;10.782;2024-03-17T02:51:06;3.80;99.90
39847;DHT22;25517;52.422;10.782;2024-03-17T02:53:32;3.70;99.90
39847;DHT22;25517;52.422;10.782;2024-03-17T02:55:57;3.70;99.90
39847;DHT22;25517;52.422;10.782;2024-03-17T02:58:23;3.80;99.90
39847;DHT22;25517;52.422;10.782;2024-03-17T03:00:48;3.80;99.90
39847;DHT22;25517;52.422;10.782;2024-03-17T03:03:15;3.70;99.90
39847;DHT22;25517;52.422;10.782;2024-03-17T03:05:40;3.70;99.90
39847;DHT22;25517;52.422;10.782;2024-03-17T03:08:06;3.70;99.90
39847;DHT22;25517;52.422;10.782;2024-03-17T03:10:31;3.60;99.90
39847;DHT22;25517;52.422;10.782;2024-03-17T03:12:57;3.60;99.90
39847;DHT22;25517;52.422;10.782;2024-03-17T03:15:23;3.60;99.90
39847;DHT22;25517;52.422;10.782;2024-03-17T03:17:48;3.60;99.90
39847;DHT22;25517;52.422;10.782;2024-03-17T03:20:14;3.60;99.90
39847;DHT22;25517;52.422;10.782;2024-03-17T03:22:40;3.60;99.90
39847;DHT22;25517;52.422;10.782;2024-03-17T03:25:06;3.50;99.90
39847;DHT22;25517;52.422;10.782;2024-03-17T03:27:33;3.50;99.90
39847;DHT22;25517;52.422;10.782;2024-03-17T03:29:59;3.50;99.90
39847;DHT22;25517;52.422;10.782;2024-03-17T03:32:25;3.40;99.90
39847;DHT22;25517;52.422;10.782;2024-03-17T03:34:50;3.50;99.90
39847;DHT22;25517;52.422;10.782;2024-03-17T03:37:16;3.50;99.90
39847;DHT22;25517;52.422;10.782;2024-03-17T03:39:41;3.40;99.90
39847;DHT22;25517;52.422;10.782;2024-03-17T03:42:07;3.40;99.90
39847;DHT22;25517;52.422;10.782;2024-03-17T03:44:32;3.30;99.90
39847;DHT22;25517;52.422;10.782;2024-03-17T03:46:58;3.30;99.90
39847;DHT22;25517;52.422;10.782;2024-03-17T03:49:26;3.30;99.90
39847;DHT22;25517;52.422;10.782;2024-03-17T03:51:51;3.20;99.90
39847;DHT22;25517;52.422;10.782;2024-03-17T03:54:17;3.10;99.90
39847;DHT22;25517;52.422;10.782;2024-03-17T03:56:42;3.00;99.90
39847;DHT22;25517;52.422;10.782;2024-03-17T03:59:09;2.90;99.90
39847;DHT22;25517;52.422;10.782;2024-03-17T04:01:35;2.80;99.90
39847;DHT22;25517;52.422;10.782;2024-03-17T04:04:00;2.80;99.90
39847;DHT22;25517;52.422;10.782;2024-03-17T04:06:26;2.80;99.90
39847;DHT22;25517;52.422;10.782;2024-03-17T04:08:52;2.80;99.90
39847;DHT22;25517;52.422;10.782;2024-03-17T04:11:17;2.80;99.90
39847;DHT22;25517;52.422;10.782;2024-03-17T04:13:43;2.80;99.90
39847;DHT22;25517;52.422;10.782;2024-03-17T04:16:08;2.80;99.90
39847;DHT22;25517;52.422;10.782;2024-03-17T04:18:35;2.70;99.90
39847;DHT22;25517;52.422;10.782;2024-03-17T04:21:05;2.70;99.90
39847;DHT22;25517;52.422;10.782;2024-03-17T04:23:34;2.70;99.90
39847;DHT22;25517;52.422;10.782;2024-03-17T04:26:00;2.60;99.90
39847;DHT22;25517;52.422;10.782;2024-03-17T04:28:27;2.60;99.90
39847;DHT22;25517;52.422;10.782;2024-03-17T04:30:52;2.60;99.90
39847;DHT22;25517;52.422;10.782;2024-03-17T04:33:18;2.70;99.90
39847;DHT22;25517;52.422;10.782;2024-03-17T04:35:44;2.70;99.90
39847;DHT22;25517;52.422;10.782;2024-03-17T04:38:10;2.80;99.90
39847;DHT22;25517;52.422;10.782;2024-03-17T04:40:40;2.80;99.90
39847;DHT22;25517;52.422;10.782;2024-03-17T04:43:07;2.90;99.90
39847;DHT22;25517;52.422;10.782;2024-03-17T04:45:32;2.90;99.90
39847;DHT22;25517;52.422;10.782;2024-03-17T04:47:58;2.90;99.90
39847;DHT22;25517;52.422;10.782;2024-03-17T04:50:23;3.00;99.90
39847;DHT22;25517;52.422;10.782;2024-03-17T04:52:49;3.00;99.90
39847;DHT22;25517;52.422;10.782;2024-03-17T04:55:15;3.10;99.90
39847;DHT22;25517;52.422;10.782;2024-03-17T04:57:45;3.20;99.90
39847;DHT22;25517;52.422;10.782;2024-03-17T05:00:11;3.20;99.90
39847;DHT22;25517;52.422;10.782;2024-03-17T05:02:39;3.30;99.90
39847;DHT22;25517;52.422;10.782;2024-03-17T05:05:05;3.40;99.90
39847;DHT22;25517;52.422;10.782;2024-03-17T05:07:32;3.40;99.90
39847;DHT22;25517;52.422;10.782;2024-03-17T05:09:58;3.50;99.90
39847;DHT22;25517;52.422;10.782;2024-03-17T05:12:23;3.60;99.90
39847;DHT22;25517;52.422;10.782;2024-03-17T05:14:49;3.50;99.90
39847;DHT22;25517;52.422;10.782;2024-03-17T05:17:14;3.60;99.90
39847;DHT22;25517;52.422;10.782;2024-03-17T05:19:40;3.60;99.90
39847;DHT22;25517;52.422;10.782;2024-03-17T05:22:05;3.60;99.90
39847;DHT22;25517;52.422;10.782;2024-03-17T05:24:31;3.60;99.90
39847;DHT22;25517;52.422;10.782;2024-03-17T05:26:57;3.70;99.90
39847;DHT22;25517;52.422;10.782;2024-03-17T05:29:22;3.70;99.90
39847;DHT22;25517;52.422;10.782;2024-03-17T05:31:49;3.80;99.90
39847;DHT22;25517;52.422;10.782;2024-03-17T05:34:15;3.80;99.90
39847;DHT22;25517;52.422;10.782;2024-03-17T05:36:41;3.90;99.90
39847;DHT22;25517;52.422;10.782;2024-03-17T05:39:09;3.90;99.90
39847;DHT22;25517;52.422;10.782;2024-03-17T05:41:34;4.00;99.90
39847;DHT22;25517;52.422;10.782;2024-03-17T05:44:00;4.00;99.90
39847;DHT22;25517;52.422;10.782;2024-03-17T05:46:29;3.90;99.90
39847;DHT22;25517;52.422;10.782;2024-03-17T05:48:55;3.90;99.90
39847;DHT22;25517;52.422;10.782;2024-03-17T05:51:21;4.00;99.90
39847;DHT22;25517;52.422;10.782;2024-03-17T05:53:47;4.00;99.90
39847;DHT22;25517;52.422;10.782;2024-03-17T05:56:13;4.00;99.90
39847;DHT22;25517;52.422;10.782;2024-03-17T05:58:39;4.00;99.90
39847;DHT22;25517;52.422;10.782;2024-03-17T06:01:05;4.00;99.90
39847;DHT22;25517;52.422;10.782;2024-03-17T06:03:35;4.10;99.90
39847;DHT22;25517;52.422;10.782;2024-03-17T06:06:04;4.20;99.90
39847;DHT22;25517;52.422;10.782;2024-03-17T06:08:35;4.20;99.90
39847;DHT22;25517;52.422;10.782;2024-03-17T06:11:01;4.30;99.90
39847;DHT22;25517;52.422;10.782;2024-03-17T06:13:27;4.40;99.90
39847;DHT22;25517;52.422;10.782;2024-03-17T06:15:53;4.50;99.90
39847;DHT22;25517;52.422;10.782;2024-03-17T06:18:19;4.50;99.90
39847;DHT22;25517;52.422;10.782;2024-03-17T06:20:46;4.60;99.90
39847;DHT22;25517;52.422;10.782;2024-03-17T06:23:15;4.70;99.90
39847;DHT22;25517;52.422;10.782;2024-03-17T06:25:48;4.80;99.90
39847;DHT22;25517;52.422;10.782;2024-03-17T06:28:15;4.90;99.90
39847;DHT22;25517;52.422;10.782;2024-03-17T06:30:42;4.90;99.90
39847;DHT22;25517;52.422;10.782;2024-03-17T06:33:13;5.00;99.90
39847;DHT22;25517;52.422;10.782;2024-03-17T06:35:39;5.10;99.90
39847;DHT22;25517;52.422;10.782;2024-03-17T06:38:05;5.20;99.90
39847;DHT22;25517;52.422;10.782;2024-03-17T06:40:35;5.20;99.90
39847;DHT22;25517;52.422;10.782;2024-03-17T06:43:01;5.30;99.90
39847;DHT22;25517;52.422;10.782;2024-03-17T06:45:27;5.40;99.90
39847;DHT22;25517;52.422;10.782;2024-03-17T06:47:52;5.40;99.90
39847;DHT22;25517;52.422;10.782;2024-03-17T06:50:18;5.50;99.90
39847;DHT22;25517;52.422;10.782;2024-03-17T06:52:43;5.60;99.90
39847;DHT22;25517;52.422;10.782;2024-03-17T06:55:09;5.70;99.90
39847;DHT22;25517;52.422;10.782;2024-03-17T06:57:35;5.80;99.90
39847;DHT22;25517;52.422;10.782;2024-03-17T07:00:04;5.80;99.90
39847;DHT22;25517;52.422;10.782;2024-03-17T07:02:39;5.90;99.90
39847;DHT22;25517;52.422;10.782;2024-03-17T07:05:06;5.90;99.90
39847;DHT22;25517;52.422;10.782;2024-03-17T07:07:32;6.00;99.90
39847;DHT22;25517;52.422;10.782;2024-03-17T07:09:57;6.10;99.90
39847;DHT22;25517;52.422;10.782;2024-03-17T07:12:23;6.20;99.90
39847;DHT22;25517;52.422;10.782;2024-03-17T07:14:51;6.20;99.90
39847;DHT22;25517;52.422;10.782;2024-03-17T07:17:17;6.30;99.90
39847;DHT22;25517;52.422;10.782;2024-03-17T07:19:43;6.40;99.90
39847;DHT22;25517;52.422;10.782;2024-03-17T07:22:08;6.50;99.90
39847;DHT22;25517;52.422;10.782;2024-03-17T07:24:34;6.60;99.90
39847;DHT22;25517;52.422;10.782;2024-03-17T07:26:59;6.70;99.90
39847;DHT22;25517;52.422;10.782;2024-03-17T07:29:25;6.80;99.90
39847;DHT22;25517;52.422;10.782;2024-03-17T07:31:51;7.00;99.90
39847;DHT22;25517;52.422;10.782;2024-03-17T07:34:16;7.10;99.90
39847;DHT22;25517;52.422;10.782;2024-03-17T07:36:42;7.20;99.90
39847;DHT22;25517;52.422;10.782;2024-03-17T07:39:08;7.30;99.90
39847;DHT22;25517;52.422;10.782;2024-03-17T07:41:33;7.50;99.90
39847;DHT22;25517;52.422;10.782;2024-03-17T07:43:59;7.60;99.90
39847;DHT22;25517;52.422;10.782;2024-03-17T07:46:25;7.70;99.90
39847;DHT22;25517;52.422;10.782;2024-03-17T07:48:50;7.70;99.90
39847;DHT22;25517;52.422;10.782;2024-03-17T07:51:17;7.90;99.90
39847;DHT22;25517;52.422;10.782;2024-03-17T07:53:43;7.90;99.90
39847;DHT22;25517;52.422;10.782;2024-03-17T07:56:17;8.00;99.90
39847;DHT22;25517;52.422;10.782;2024-03-17T07:58:44;8.00;99.90
39847;DHT22;25517;52.422;10.782;2024-03-17T08:01:14;8.00;99.90
39847;DHT22;25517;52.422;10.782;2024-03-17T08:03:41;8.10;99.90
39847;DHT22;25517;52.422;10.782;2024-03-17T08:06:08;8.20;99.90
39847;DHT22;25517;52.422;10.782;2024-03-17T08:08:34;8.20;99.90
39847;DHT22;25517;52.422;10.782;2024-03-17T08:11:00;8.20;99.90
39847;DHT22;25517;52.422;10.782;2024-03-17T08:13:29;8.20;99.90
39847;DHT22;25517;52.422;10.782;2024-03-17T08:16:01;8.20;99.90
39847;DHT22;25517;52.422;10.782;2024-03-17T08:18:28;8.30;99.90
39847;DHT22;25517;52.422;10.782;2024-03-17T08:20:54;8.30;99.90
39847;DHT22;25517;52.422;10.782;2024-03-17T08:23:20;8.30;99.90
39847;DHT22;25517;52.422;10.782;2024-03-17T08:25:53;8.30;99.90
39847;DHT22;25517;52.422;10.782;2024-03-17T08:28:19;8.50;99.90
39847;DHT22;25517;52.422;10.782;2024-03-17T08:30:51;8.70;99.90
39847;DHT22;25517;52.422;10.782;2024-03-17T08:33:17;8.80;99.90
39847;DHT22;25517;52.422;10.782;2024-03-17T08:35:56;9.00;99.90
39847;DHT22;25517;52.422;10.782;2024-03-17T08:38:22;9.00;99.90
39847;DHT22;25517;52.422;10.782;2024-03-17T08:40:52;9.00;99.90
39847;DHT22;25517;52.422;10.782;2024-03-17T08:43:21;9.20;99.90
39847;DHT22;25517;52.422;10.782;2024-03-17T08:46:07;9.40;99.90
39847;DHT22;25517;52.422;10.782;2024-03-17T08:48:38;9.70;99.90
39847;DHT22;25517;52.422;10.782;2024-03-17T08:51:06;9.90;99.90
39847;DHT22;25517;52.422;10.782;2024-03-17T08:53:32;10.10;99.90
39847;DHT22;25517;52.422;10.782;2024-03-17T08:55:58;10.10;99.90
39847;DHT22;25517;52.422;10.782;2024-03-17T08:58:25;10.10;99.90
39847;DHT22;25517;52.422;10.782;2024-03-17T09:00:51;10.00;99.90
39847;DHT22;25517;52.422;10.782;2024-03-17T09:03:17;9.80;99.90
39847;DHT22;25517;52.422;10.782;2024-03-17T09:05:45;9.70;99.90
39847;DHT22;25517;52.422;10.782;2024-03-17T09:08:21;9.60;99.90
39847;DHT22;25517;52.422;10.782;2024-03-17T09:10:49;9.60;99.90
39847;DHT22;25517;52.422;10.782;2024-03-17T09:13:17;9.60;99.90
39847;DHT22;25517;52.422;10.782;2024-03-17T09:15:54;11.10;99.90
39847;DHT22;25517;52.422;10.782;2024-03-17T09:18:20;13.40;99.90
39847;DHT22;25517;52.422;10.782;2024-03-17T09:20:46;15.10;96.90
39847;DHT22;25517;52.422;10.782;2024-03-17T09:23:20;15.80;91.30
39847;DHT22;25517;52.422;10.782;2024-03-17T09:25:58;15.40;91.70
39847;DHT22;25517;52.422;10.782;2024-03-17T09:28:24;15.70;90.80
39847;DHT22;25517;52.422;10.782;2024-03-17T09:30:49;16.30;88.90
39847;DHT22;25517;52.422;10.782;2024-03-17T09:33:18;16.20;89.80
39847;DHT22;25517;52.422;10.782;2024-03-17T09:35:44;16.20;88.30
39847;DHT22;25517;52.422;10.782;2024-03-17T09:38:17;15.90;84.10
39847;DHT22;25517;52.422;10.782;2024-03-17T09:40:47;14.80;88.80
39847;DHT22;25517;52.422;10.782;2024-03-17T09:43:13;14.40;87.90
39847;DHT22;25517;52.422;10.782;2024-03-17T09:45:39;13.70;90.00
39847;DHT22;25517;52.422;10.782;2024-03-17T09:48:04;13.40;91.50
39847;DHT22;25517;52.422;10.782;2024-03-17T09:50:31;12.90;93.00
39847;DHT22;25517;52.422;10.782;2024-03-17T09:53:00;12.80;93.30
39847;DHT22;25517;52.422;10.782;2024-03-17T09:55:27;12.30;92.80
39847;DHT22;25517;52.422;10.782;2024-03-17T09:57:53;11.70;95.00
39847;DHT22;25517;52.422;10.782;2024-03-17T10:00:18;11.60;94.60
39847;DHT22;25517;52.422;10.782;2024-03-17T10:02:45;11.50;94.10
39847;DHT22;25517;52.422;10.782;2024-03-17T10:05:22;11.40;94.50
39847;DHT22;25517;52.422;10.782;2024-03-17T10:07:48;11.50;95.00
39847;DHT22;25517;52.422;10.782;2024-03-17T10:10:18;11.50;95.00
39847;DHT22;25517;52.422;10.782;2024-03-17T10:12:52;11.60;94.50
39847;DHT22;25517;52.422;10.782;2024-03-17T10:15:18;11.50;93.30
39847;DHT22;25517;52.422;10.782;2024-03-17T10:17:44;11.60;93.60
39847;DHT22;25517;52.422;10.782;2024-03-17T10:20:16;11.60;93.50
39847;DHT22;25517;52.422;10.782;2024-03-17T10:23:05;11.70;93.50
39847;DHT22;25517;52.422;10.782;2024-03-17T10:25:33;11.80;94.10
39847;DHT22;25517;52.422;10.782;2024-03-17T10:28:02;12.00;93.60
39847;DHT22;25517;52.422;10.782;2024-03-17T10:30:28;13.40;93.80
39847;DHT22;25517;52.422;10.782;2024-03-17T10:33:00;15.30;90.00
39847;DHT22;25517;52.422;10.782;2024-03-17T10:35:33;17.00;85.10
39847;DHT22;25517;52.422;10.782;2024-03-17T10:38:01;17.60;79.10
39847;DHT22;25517;52.422;10.782;2024-03-17T10:40:28;17.30;77.40
39847;DHT22;25517;52.422;10.782;2024-03-17T10:42:55;16.50;78.20
39847;DHT22;25517;52.422;10.782;2024-03-17T10:45:27;15.90;79.40
39847;DHT22;25517;52.422;10.782;2024-03-17T10:47:59;15.80;81.90
39847;DHT22;25517;52.422;10.782;2024-03-17T10:50:29;15.30;81.00
39847;DHT22;25517;52.422;10.782;2024-03-17T10:52:58;15.10;82.80
39847;DHT22;25517;52.422;10.782;2024-03-17T10:55:30;15.90;82.10
39847;DHT22;25517;52.422;10.782;2024-03-17T10:57:57;15.80;81.60
39847;DHT22;25517;52.422;10.782;2024-03-17T11:00:25;15.40;81.60
39847;DHT22;25517;52.422;10.782;2024-03-17T11:02:55;15.00;82.90
39847;DHT22;25517;52.422;10.782;2024-03-17T11:05:28;14.40;81.30
39847;DHT22;25517;52.422;10.782;2024-03-17T11:07:59;14.10;82.40
39847;DHT22;25517;52.422;10.782;2024-03-17T11:10:33;13.60;85.50
39847;DHT22;25517;52.422;10.782;2024-03-17T11:13:00;13.20;85.20
39847;DHT22;25517;52.422;10.782;2024-03-17T11:18:27;13.90;84.70
39847;DHT22;25517;52.422;10.782;2024-03-17T11:20:43;13.70;83.80
39847;DHT22;25517;52.422;10.782;2024-03-17T11:23:28;13.80;83.20
39847;DHT22;25517;52.422;10.782;2024-03-17T11:25:54;13.80;86.40
39847;DHT22;25517;52.422;10.782;2024-03-17T11:31:04;15.00;81.30
39847;DHT22;25517;52.422;10.782;2024-03-17T11:39:07;15.50;81.60
39847;DHT22;25517;52.422;10.782;2024-03-17T11:41:45;15.20;81.10
39847;DHT22;25517;52.422;10.782;2024-03-17T11:47:00;14.70;81.50
39847;DHT22;25517;52.422;10.782;2024-03-17T11:49:36;14.40;79.40
39847;DHT22;25517;52.422;10.782;2024-03-17T11:52:09;14.00;79.80
39847;DHT22;25517;52.422;10.782;2024-03-17T11:54:37;13.80;80.80
39847;DHT22;25517;52.422;10.782;2024-03-17T11:57:07;14.90;79.80
39847;DHT22;25517;52.422;10.782;2024-03-17T11:59:33;15.80;76.90
39847;DHT22;25517;52.422;10.782;2024-03-17T12:02:01;17.20;76.10
39847;DHT22;25517;52.422;10.782;2024-03-17T12:04:29;17.50;74.70
39847;DHT22;25517;52.422;10.782;2024-03-17T12:06:56;17.80;73.70
39847;DHT22;25517;52.422;10.782;2024-03-17T12:09:27;19.10;72.60
39847;DHT22;25517;52.422;10.782;2024-03-17T12:12:11;20.30;72.00
39847;DHT22;25517;52.422;10.782;2024-03-17T12:14:40;21.00;69.20
39847;DHT22;25517;52.422;10.782;2024-03-17T12:17:10;21.50;66.80
39847;DHT22;25517;52.422;10.782;2024-03-17T12:19:37;21.80;68.60
39847;DHT22;25517;52.422;10.782;2024-03-17T12:22:06;21.70;66.00
39847;DHT22;25517;52.422;10.782;2024-03-17T12:24:36;21.60;65.50
39847;DHT22;25517;52.422;10.782;2024-03-17T12:27:05;21.00;64.70
39847;DHT22;25517;52.422;10.782;2024-03-17T12:29:39;20.70;63.50
39847;DHT22;25517;52.422;10.782;2024-03-17T12:32:14;19.80;63.40
39847;DHT22;25517;52.422;10.782;2024-03-17T12:34:44;19.20;64.60
39847;DHT22;25517;52.422;10.782;2024-03-17T12:37:23;18.70;68.70
39847;DHT22;25517;52.422;10.782;2024-03-17T12:39:51;18.10;67.90
39847;DHT22;25517;52.422;10.782;2024-03-17T12:42:23;18.70;68.00
39847;DHT22;25517;52.422;10.782;2024-03-17T12:44:53;18.30;68.80
39847;DHT22;25517;52.422;10.782;2024-03-17T12:47:20;18.30;69.60
39847;DHT22;25517;52.422;10.782;2024-03-17T12:49:52;18.30;67.90
39847;DHT22;25517;52.422;10.782;2024-03-17T12:52:25;18.10;68.80
39847;DHT22;25517;52.422;10.782;2024-03-17T12:54:58;17.60;65.80
39847;DHT22;25517;52.422;10.782;2024-03-17T12:57:44;17.10;68.70
39847;DHT22;25517;52.422;10.782;2024-03-17T13:00:28;17.60;71.50
39847;DHT22;25517;52.422;10.782;2024-03-17T13:03:06;17.20;69.60
39847;DHT22;25517;52.422;10.782;2024-03-17T13:05:33;17.20;70.90
39847;DHT22;25517;52.422;10.782;2024-03-17T13:07:59;17.00;70.10
39847;DHT22;25517;52.422;10.782;2024-03-17T13:10:27;17.20;73.80
39847;DHT22;25517;52.422;10.782;2024-03-17T13:13:04;17.10;70.60
39847;DHT22;25517;52.422;10.782;2024-03-17T13:15:30;16.80;72.20
39847;DHT22;25517;52.422;10.782;2024-03-17T13:17:57;17.00;73.30
39847;DHT22;25517;52.422;10.782;2024-03-17T13:20:22;16.90;73.40
39847;DHT22;25517;52.422;10.782;2024-03-17T13:22:48;16.80;68.70
39847;DHT22;25517;52.422;10.782;2024-03-17T13:25:15;16.90;69.70
39847;DHT22;25517;52.422;10.782;2024-03-17T13:27:42;16.80;68.70
39847;DHT22;25517;52.422;10.782;2024-03-17T13:30:08;16.60;73.90
39847;DHT22;25517;52.422;10.782;2024-03-17T13:32:35;16.50;71.10
39847;DHT22;25517;52.422;10.782;2024-03-17T13:35:01;16.60;71.40
39847;DHT22;25517;52.422;10.782;2024-03-17T13:37:28;16.80;72.80
39847;DHT22;25517;52.422;10.782;2024-03-17T13:39:54;16.50;71.00
39847;DHT22;25517;52.422;10.782;2024-03-17T13:42:19;16.50;73.00
39847;DHT22;25517;52.422;10.782;2024-03-17T13:44:51;16.40;72.60
39847;DHT22;25517;52.422;10.782;2024-03-17T13:47:17;16.40;72.60
39847;DHT22;25517;52.422;10.782;2024-03-17T13:49:43;16.50;70.80
39847;DHT22;25517;52.422;10.782;2024-03-17T13:52:09;16.60;71.70
39847;DHT22;25517;52.422;10.782;2024-03-17T13:54:35;16.40;71.60
39847;DHT22;25517;52.422;10.782;2024-03-17T13:57:00;16.20;71.00
39847;DHT22;25517;52.422;10.782;2024-03-17T13:59:27;15.90;72.90
39847;DHT22;25517;52.422;10.782;2024-03-17T14:01:53;15.70;72.80
39847;DHT22;25517;52.422;10.782;2024-03-17T14:04:19;15.50;72.20
39847;DHT22;25517;52.422;10.782;2024-03-17T14:06:45;15.70;71.20
39847;DHT22;25517;52.422;10.782;2024-03-17T14:09:15;15.80;70.00
39847;DHT22;25517;52.422;10.782;2024-03-17T14:11:43;15.90;71.10
39847;DHT22;25517;52.422;10.782;2024-03-17T14:14:10;16.00;71.00
39847;DHT22;25517;52.422;10.782;2024-03-17T14:16:36;16.00;71.40
39847;DHT22;25517;52.422;10.782;2024-03-17T14:19:01;16.10;72.40
39847;DHT22;25517;52.422;10.782;2024-03-17T14:21:27;16.10;70.80
39847;DHT22;25517;52.422;10.782;2024-03-17T14:23:54;15.70;72.10
39847;DHT22;25517;52.422;10.782;2024-03-17T14:26:20;15.90;69.80
39847;DHT22;25517;52.422;10.782;2024-03-17T14:28:47;15.80;69.60
39847;DHT22;25517;52.422;10.782;2024-03-17T14:31:12;15.60;70.20
39847;DHT22;25517;52.422;10.782;2024-03-17T14:33:38;15.40;70.90
39847;DHT22;25517;52.422;10.782;2024-03-17T14:36:04;15.60;71.00
39847;DHT22;25517;52.422;10.782;2024-03-17T14:38:31;15.80;71.60
39847;DHT22;25517;52.422;10.782;2024-03-17T14:40:57;15.50;72.40
39847;DHT22;25517;52.422;10.782;2024-03-17T14:43:23;15.50;71.70
39847;DHT22;25517;52.422;10.782;2024-03-17T14:45:48;15.20;70.50
39847;DHT22;25517;52.422;10.782;2024-03-17T14:48:14;15.40;70.40
39847;DHT22;25517;52.422;10.782;2024-03-17T14:50:40;15.30;70.60
39847;DHT22;25517;52.422;10.782;2024-03-17T14:53:06;15.00;71.90
39847;DHT22;25517;52.422;10.782;2024-03-17T14:55:32;14.70;72.80
39847;DHT22;25517;52.422;10.782;2024-03-17T14:57:58;14.40;72.60
39847;DHT22;25517;52.422;10.782;2024-03-17T15:00:24;14.40;75.80
39847;DHT22;25517;52.422;10.782;2024-03-17T15:02:51;14.40;74.80
39847;DHT22;25517;52.422;10.782;2024-03-17T15:05:20;14.10;72.80
39847;DHT22;25517;52.422;10.782;2024-03-17T15:07:47;13.90;74.20
39847;DHT22;25517;52.422;10.782;2024-03-17T15:10:14;13.80;75.20
39847;DHT22;25517;52.422;10.782;2024-03-17T15:12:49;13.70;76.50
39847;DHT22;25517;52.422;10.782;2024-03-17T15:15:15;13.90;74.50
39847;DHT22;25517;52.422;10.782;2024-03-17T15:17:41;14.00;75.20
39847;DHT22;25517;52.422;10.782;2024-03-17T15:20:10;13.90;74.60
39847;DHT22;25517;52.422;10.782;2024-03-17T15:22:47;13.90;74.40
39847;DHT22;25517;52.422;10.782;2024-03-17T15:25:15;13.70;75.50
39847;DHT22;25517;52.422;10.782;2024-03-17T15:27:41;13.70;75.10
39847;DHT22;25517;52.422;10.782;2024-03-17T15:30:11;13.50;75.50
39847;DHT22;25517;52.422;10.782;2024-03-17T15:32:36;13.60;74.30
39847;DHT22;25517;52.422;10.782;2024-03-17T15:35:02;13.50;74.30
39847;DHT22;25517;52.422;10.782;2024-03-17T15:37:28;13.50;76.10
39847;DHT22;25517;52.422;10.782;2024-03-17T15:39:54;13.60;78.20
39847;DHT22;25517;52.422;10.782;2024-03-17T15:42:21;13.60;76.40